Time;durP1;ratioP1;P1;durP2;ratioP2;P2;SDS_P1;SDS_P2;PMS_P1;PMS_P2;Temp;Humidity;BMP_temperature;BMP_pressure;BME280_temperature;BME280_humidity;BME280_pressure;Samples;Min_cycle;Max_cycle;Signal;HPM_P1;HPM_P2
2022/11/16 00:01:16;;;;;;;20.83;16.85;;;;;;;11.30;100.00;99599.41;5007024;28;20030;-60
2022/11/16 00:03:41;;;;;;;19.63;17.58;;;;;;;11.00;100.00;99551.06;5006978;28;20033;-61
2022/11/16 00:06:07;;;;;;;21.33;17.80;;;;;;;11.26;100.00;99588.22;5009164;28;20042;-60
2022/11/16 00:08:35;;;;;;;24.45;18.48;;;;;;;10.75;100.00;99501.53;4991442;28;20478;-60
2022/11/16 00:11:04;;;;;;;21.77;18.13;;;;;;;11.29;100.00;99581.94;5008112;28;20061;-60
2022/11/16 00:13:32;;;;;;;20.42;17.75;;;;;;;10.88;100.00;99506.97;5008705;28;20646;-60
2022/11/16 00:15:57;;;;;;;25.05;18.90;;;;;;;11.34;100.00;99585.16;5007636;28;20022;-60
2022/11/16 00:18:22;;;;;;;27.50;19.15;;;;;;;11.28;100.00;99572.31;5009214;28;20052;-62
2022/11/16 00:20:49;;;;;;;24.05;19.23;;;;;;;11.25;100.00;99578.59;5008570;28;20112;-60
2022/11/16 00:23:14;;;;;;;23.52;18.48;;;;;;;11.22;100.00;99588.47;5007490;28;20073;-62
2022/11/16 00:25:39;;;;;;;23.33;20.23;;;;;;;10.98;100.00;99523.94;5007421;28;20046;-59
2022/11/16 00:28:04;;;;;;;23.10;19.48;;;;;;;11.35;100.00;99586.88;5008658;28;20034;-60
2022/11/16 00:30:30;;;;;;;23.08;20.67;;;;;;;11.39;100.00;99592.78;5008525;28;20133;-60
2022/11/16 00:32:59;;;;;;;23.85;21.33;;;;;;;11.38;100.00;99597.25;5007149;28;20034;-61
2022/11/16 00:35:24;;;;;;;23.65;20.83;;;;;;;11.41;100.00;99604.13;5008688;28;20084;-62
2022/11/16 00:37:50;;;;;;;28.88;21.13;;;;;;;11.00;100.00;99528.22;5008922;28;20034;-61
2022/11/16 00:40:16;;;;;;;25.48;21.88;;;;;;;11.36;100.00;99591.19;5007290;28;20431;-60
2022/11/16 00:42:41;;;;;;;26.90;22.20;;;;;;;11.40;100.00;99594.50;5008599;28;20470;-60
2022/11/16 00:45:07;;;;;;;29.95;24.48;;;;;;;11.39;100.00;99598.06;5008598;28;20042;-61
2022/11/16 00:47:32;;;;;;;26.27;22.80;;;;;;;11.37;100.00;99595.53;5007225;28;20521;-60
2022/11/16 00:49:57;;;;;;;27.85;23.23;;;;;;;11.36;100.00;99587.69;5008234;28;20038;-60
2022/11/16 00:52:23;;;;;;;28.05;23.98;;;;;;;11.31;100.00;99577.41;5008712;28;20420;-60
2022/11/16 00:54:48;;;;;;;29.02;25.05;;;;;;;11.41;100.00;99598.84;5008426;28;20034;-60
2022/11/16 00:57:14;;;;;;;30.63;24.02;;;;;;;11.40;100.00;99590.09;5007029;28;20038;-60
2022/11/16 00:59:39;;;;;;;34.55;25.77;;;;;;;11.11;100.00;99539.03;5008208;28;20042;-61
2022/11/16 01:02:04;;;;;;;34.65;25.92;;;;;;;11.16;100.00;99555.41;5008678;28;20038;-60
2022/11/16 01:04:29;;;;;;;35.35;25.98;;;;;;;11.14;100.00;99545.91;5008269;28;20447;-60
2022/11/16 01:06:55;;;;;;;31.05;25.88;;;;;;;11.42;100.00;99590.84;5008038;28;20128;-59
2022/11/16 01:09:20;;;;;;;30.80;25.52;;;;;;;11.12;100.00;99545.13;5008297;28;20036;-60
2022/11/16 01:14:29;;;;;;;31.52;26.40;;;;;;;11.51;100.00;99602.66;5008058;28;20414;-59
2022/11/16 01:16:54;;;;;;;27.05;22.75;;;;;;;11.46;100.00;99600.28;5007817;28;20042;-59
2022/11/16 01:19:20;;;;;;;19.13;16.95;;;;;;;11.47;100.00;99594.06;5006700;28;20049;-58
2022/11/16 01:21:45;;;;;;;15.80;14.00;;;;;;;11.36;100.00;99585.91;5006385;28;20050;-58
2022/11/16 01:24:10;;;;;;;15.38;13.77;;;;;;;11.43;100.00;99600.47;5009809;28;20116;-58
2022/11/16 01:26:36;;;;;;;14.68;12.60;;;;;;;11.38;100.00;99607.78;5011624;28;20057;-59
2022/11/16 01:29:01;;;;;;;15.73;14.07;;;;;;;11.06;100.00;99551.56;5011534;28;20032;-58
2022/11/16 01:31:26;;;;;;;16.30;14.63;;;;;;;11.37;100.00;99595.53;5011625;28;20095;-59
2022/11/16 01:33:53;;;;;;;19.23;15.93;;;;;;;11.12;100.00;99561.75;5011354;28;20365;-59
2022/11/16 01:36:18;;;;;;;18.85;16.65;;;;;;;11.22;100.00;99588.47;5011662;28;20026;-59
2022/11/16 01:38:45;;;;;;;18.42;16.38;;;;;;;10.92;100.00;99532.19;4993877;28;20083;-59
2022/11/16 01:41:15;;;;;;;19.00;17.00;;;;;;;11.14;100.00;99580.13;5011239;28;20030;-59
2022/11/16 01:43:55;;;;;;;20.30;18.10;;;;;;;11.24;100.00;99597.97;4993932;28;20041;-60
2022/11/16 01:46:22;;;;;;;21.30;17.15;;;;;;;11.19;100.00;99588.63;5011181;28;20281;-59
2022/11/16 01:48:50;;;;;;;20.70;18.35;;;;;;;11.17;100.00;99595.78;5011311;28;20044;-58
2022/11/16 01:51:15;;;;;;;21.58;18.15;;;;;;;11.18;100.00;99585.13;5011176;28;20030;-60
2022/11/16 01:53:40;;;;;;;20.83;18.17;;;;;;;11.19;100.00;99588.63;5011022;28;20037;-59
2022/11/16 01:56:07;;;;;;;21.35;17.88;;;;;;;11.17;100.00;99570.28;5009829;28;20038;-61
2022/11/16 01:58:32;;;;;;;22.55;19.15;;;;;;;10.75;100.00;99509.41;5010087;28;20033;-59
2022/11/16 02:00:58;;;;;;;20.73;17.83;;;;;;;10.82;100.00;99517.84;5010047;28;20377;-58
2022/11/16 02:03:24;;;;;;;21.63;18.10;;;;;;;11.14;100.00;99582.75;5011000;28;20128;-58
2022/11/16 02:06:13;;;;;;;20.63;17.95;;;;;;;11.12;100.00;99588.09;5010984;28;20049;-59
2022/11/16 02:11:39;;;;;;;21.15;18.48;;;;;;;10.37;100.00;99474.63;5010836;28;20072;-59
2022/11/16 02:14:26;;;;;;;22.90;19.20;;;;;;;10.61;100.00;99525.97;5011080;28;20049;-59
2022/11/16 02:17:13;;;;;;;22.80;18.27;;;;;;;11.00;100.00;99596.69;5009692;28;20112;-58
2022/11/16 02:19:47;;;;;;;23.23;19.23;;;;;;;11.01;100.00;99594.88;5011039;28;20073;-59
2022/11/16 02:23:10;;;;;;;26.85;19.83;;;;;;;11.01;100.00;99586.97;5010402;28;20053;-59
2022/11/16 02:25:38;;;;;;;25.45;19.98;;;;;;;11.02;100.00;99609.75;5050938;28;20078;-58
2022/11/16 02:28:29;;;;;;;23.77;20.08;;;;;;;11.03;100.00;99598.31;5051044;28;20465;-57
2022/11/16 02:30:57;;;;;;;24.48;20.63;;;;;;;10.63;100.00;99529.34;5011406;28;20038;-58
2022/11/16 02:33:29;;;;;;;25.10;19.83;;;;;;;10.88;100.00;99575.41;5009337;28;20053;-59
2022/11/16 02:35:58;;;;;;;27.35;21.70;;;;;;;10.96;100.00;99602.19;5010086;28;20030;-59
2022/11/16 02:38:27;;;;;;;29.40;21.38;;;;;;;10.46;100.00;99500.44;5009104;28;20033;-59
2022/11/16 02:41:00;;;;;;;28.23;21.45;;;;;;;10.47;100.00;99510.06;5009313;28;20034;-58
2022/11/16 02:43:47;;;;;;;28.42;21.23;;;;;;;10.47;100.00;99520.56;5010881;28;20110;-59
2022/11/16 02:46:20;;;;;;;27.63;21.92;;;;;;;10.75;100.00;99575.22;5008926;28;20041;-59
2022/11/16 02:48:49;;;;;;;29.70;21.75;;;;;;;10.81;100.00;99582.78;5008948;28;20646;-60
2022/11/16 02:51:16;;;;;;;30.75;21.27;;;;;;;10.52;100.00;99536.97;5009216;28;20038;-59
2022/11/16 02:54:14;;;;;;;28.42;22.75;;;;;;;10.76;100.00;99589.22;5009027;28;20034;-58
2022/11/16 02:56:45;;;;;;;30.17;22.30;;;;;;;10.72;100.00;99588.53;5012842;28;20042;-59
2022/11/16 02:59:11;;;;;;;32.70;23.08;;;;;;;10.57;100.00;99560.38;5009976;28;20030;-59
2022/11/16 03:01:41;;;;;;;30.27;22.05;;;;;;;10.10;100.00;99502.31;5009185;28;20037;-58
2022/11/16 03:04:13;;;;;;;29.38;22.10;;;;;;;10.46;100.00;99566.22;4993080;28;20038;-59
2022/11/16 03:06:40;;;;;;;29.70;20.48;;;;;;;10.22;100.00;99516.66;5010620;28;20030;-60
2022/11/16 03:09:13;;;;;;;24.83;19.58;;;;;;;10.62;100.00;99588.16;4992630;28;20044;-59
2022/11/16 03:11:58;;;;;;;24.13;18.63;;;;;;;10.21;100.00;99526.34;5010189;28;20532;-60
2022/11/16 03:14:32;;;;;;;24.75;16.17;;;;;;;10.52;100.00;99586.09;5008626;28;20034;-59
2022/11/16 03:16:59;;;;;;;20.10;15.20;;;;;;;10.27;100.00;99547.06;4992458;28;20041;-59
2022/11/16 03:20:04;;;;;;;15.18;12.82;;;;;;;10.55;100.00;99591.19;5009945;28;20444;-59
2022/11/16 03:22:57;;;;;;;17.13;12.68;;;;;;;10.23;100.00;99542.88;5009611;28;20052;-60
2022/11/16 03:25:23;;;;;;;16.92;11.38;;;;;;;10.39;100.00;99606.09;5009696;28;20073;-60
2022/11/16 03:28:10;;;;;;;14.30;9.88;;;;;;;10.41;100.00;99591.91;5008635;28;20077;-59
2022/11/16 03:30:48;;;;;;;15.23;9.80;;;;;;;10.37;100.00;99602.66;5009756;28;20041;-59
2022/11/16 03:33:22;;;;;;;15.20;9.05;;;;;;;10.36;100.00;99593.09;5008309;28;20097;-60
2022/11/16 03:36:00;;;;;;;13.07;9.52;;;;;;;10.04;100.00;99550.00;5008442;28;20072;-60
2022/11/16 03:38:26;;;;;;;14.90;8.50;;;;;;;10.31;100.00;99606.47;5008477;28;20433;-59
2022/11/16 03:40:52;;;;;;;12.27;8.20;;;;;;;10.00;100.00;99551.91;5008537;28;20034;-59
2022/11/16 03:43:19;;;;;;;12.75;8.30;;;;;;;10.28;100.00;99587.34;5008104;28;20036;-59
2022/11/16 03:45:45;;;;;;;16.45;8.13;;;;;;;10.31;100.00;99602.97;5007671;28;20038;-59
2022/11/16 03:48:11;;;;;;;16.20;8.00;;;;;;;9.88;100.00;99536.75;5007754;28;20053;-59
2022/11/16 03:50:37;;;;;;;11.35;7.90;;;;;;;10.24;100.00;99605.09;5008392;28;20046;-61
2022/11/16 03:53:03;;;;;;;18.52;8.95;;;;;;;10.26;100.00;99600.59;5008030;28;20037;-60
2022/11/16 03:55:28;;;;;;;11.38;7.25;;;;;;;9.89;100.00;99537.63;5009426;28;20041;-60
2022/11/16 03:57:53;;;;;;;13.23;7.75;;;;;;;10.13;100.00;99586.34;5009415;28;20124;-59
2022/11/16 04:00:19;;;;;;;14.35;8.15;;;;;;;10.17;100.00;99603.69;5007673;28;20394;-59
2022/11/16 04:02:44;;;;;;;14.05;7.32;;;;;;;10.06;100.00;99592.81;5009203;28;20045;-59
2022/11/16 04:24:47;;;;;;;15.02;8.05;;;;;;;9.69;100.00;99561.41;5008915;28;20067;-60
2022/11/16 04:30:00;;;;;;;15.45;8.32;;;;;;;9.86;100.00;99591.19;5007595;28;20075;-61
2022/11/16 04:37:55;;;;;;;17.60;9.32;;;;;;;9.82;100.00;99604.53;5007619;28;20414;-59
2022/11/16 04:40:23;;;;;;;16.73;9.27;;;;;;;9.84;100.00;99628.94;5008659;28;20042;-60
2022/11/16 04:42:52;;;;;;;20.90;9.55;;;;;;;9.77;100.00;99630.19;5008562;28;20084;-60
2022/11/16 04:48:02;;;;;;;15.85;9.85;;;;;;;9.75;100.00;99639.94;5008799;28;20046;-60
2022/11/16 04:50:28;;;;;;;18.95;9.43;;;;;;;9.74;100.00;99620.69;5007277;28;20075;-60
2022/11/16 04:52:53;;;;;;;15.65;10.32;;;;;;;9.79;100.00;99613.41;5007170;28;20124;-60
2022/11/16 04:55:18;;;;;;;18.98;9.48;;;;;;;9.81;100.00;99621.22;5008649;28;20080;-61
2022/11/16 04:57:43;;;;;;;13.80;9.25;;;;;;;9.71;100.00;99617.34;5009177;28;20038;-63
2022/11/16 05:00:09;;;;;;;16.20;9.68;;;;;;;9.42;100.00;99572.31;5012114;28;20482;-59
2022/11/16 05:02:35;;;;;;;13.50;9.30;;;;;;;9.31;100.00;99555.38;5010806;28;20386;-61
2022/11/16 05:05:00;;;;;;;17.05;9.45;;;;;;;9.64;100.00;99624.66;5011928;28;20133;-59
2022/11/16 05:07:25;;;;;;;15.68;9.38;;;;;;;9.65;100.00;99628.16;5011796;28;20512;-59
2022/11/16 05:09:51;;;;;;;16.08;9.80;;;;;;;9.61;100.00;99630.06;5010508;28;20042;-59
2022/11/16 05:12:19;;;;;;;14.32;9.65;;;;;;;9.61;100.00;99630.06;5010532;28;20038;-59
2022/11/16 05:14:44;;;;;;;17.52;10.00;;;;;;;9.17;100.00;99558.63;5010420;28;20405;-60
2022/11/16 05:17:10;;;;;;;16.52;9.73;;;;;;;9.44;100.00;99606.38;5010432;28;20063;-60
2022/11/16 05:22:20;;;;;;;15.90;8.98;;;;;;;9.13;100.00;99561.47;5011706;28;20064;-61
2022/11/16 05:24:45;;;;;;;16.25;8.98;;;;;;;9.17;100.00;99563.00;5010425;28;20072;-61
2022/11/16 05:27:13;;;;;;;18.50;10.25;;;;;;;9.54;100.00;99626.88;5011802;28;20121;-62
2022/11/16 05:29:39;;;;;;;16.27;9.70;;;;;;;9.04;100.00;99554.88;5011775;28;20033;-61
2022/11/16 05:32:05;;;;;;;17.10;9.45;;;;;;;9.10;100.00;99580.00;5010207;28;20397;-60
2022/11/16 05:34:30;;;;;;;12.48;8.80;;;;;;;9.23;100.00;99617.88;5010107;28;20034;-60
2022/11/16 05:36:56;;;;;;;14.18;8.45;;;;;;;8.93;100.00;99572.91;5010463;28;20037;-61
2022/11/16 05:39:22;;;;;;;15.70;9.35;;;;;;;8.93;100.00;99573.72;5011376;28;20520;-60
2022/11/16 05:41:47;;;;;;;20.77;10.38;;;;;;;9.21;100.00;99632.84;5010607;28;20070;-61
2022/11/16 05:44:14;;;;;;;19.40;9.10;;;;;;;8.84;100.00;99583.81;5011326;28;20406;-59
2022/11/16 05:46:39;;;;;;;15.68;8.90;;;;;;;7.84;100.00;99436.19;5009856;28;20099;-60
2022/11/16 05:49:07;;;;;;;14.18;8.90;;;;;;;8.74;100.00;99574.63;5011063;28;20489;-60
2022/11/16 05:51:34;;;;;;;20.80;9.70;;;;;;;9.02;100.00;99635.44;5011403;28;20428;-61
2022/11/16 05:53:59;;;;;;;13.00;8.60;;;;;;;8.89;100.00;99623.81;5011403;28;20046;-60
2022/11/16 05:56:25;;;;;;;15.85;9.25;;;;;;;8.89;100.00;99636.94;5010912;28;20022;-60
2022/11/16 05:58:50;;;;;;;16.38;9.07;;;;;;;8.40;100.00;99578.75;5011378;28;20077;-60
2022/11/16 06:01:15;;;;;;;13.10;8.68;;;;;;;8.70;100.00;99642.13;5011069;28;20037;-60
2022/11/16 06:03:41;;;;;;;14.25;9.00;;;;;;;8.22;100.00;99565.56;5010776;28;20041;-59
2022/11/16 06:06:06;;;;;;;13.25;8.38;;;;;;;8.59;100.00;99648.75;5010468;28;20043;-61
2022/11/16 06:08:31;;;;;;;18.38;8.38;;;;;;;8.52;100.00;99652.56;5010056;28;20030;-60
2022/11/16 06:11:03;;;;;;;16.23;8.38;;;;;;;8.44;100.00;99645.88;5010062;28;20034;-60
2022/11/16 06:13:30;;;;;;;13.98;8.38;;;;;;;8.50;100.00;99665.72;5010183;28;20034;-59
2022/11/16 06:15:55;;;;;;;14.80;7.90;;;;;;;8.41;100.00;99655.63;5009654;28;20038;-60
2022/11/16 06:18:20;;;;;;;15.13;8.07;;;;;;;8.26;100.00;99643.97;5009311;28;20390;-60
2022/11/16 06:20:46;;;;;;;16.65;8.30;;;;;;;8.19;100.00;99649.56;5009720;28;20030;-59
2022/11/16 06:23:12;;;;;;;13.68;6.93;;;;;;;8.18;100.00;99656.56;5009690;28;20192;-59
2022/11/16 06:25:38;;;;;;;12.75;5.85;;;;;;;7.72;100.00;99592.09;5009941;28;20534;-59
2022/11/16 06:28:03;;;;;;;13.70;6.10;;;;;;;7.77;100.00;99600.59;5009488;28;20536;-59
2022/11/16 06:30:29;;;;;;;15.48;6.10;;;;;;;7.82;100.00;99624.00;5008964;28;20042;-60
2022/11/16 06:32:54;;;;;;;9.68;5.65;;;;;;;7.64;100.00;99598.56;5008983;28;20065;-60
2022/11/16 06:35:19;;;;;;;11.63;5.28;;;;;;;7.61;100.00;99589.06;5009708;28;20061;-60
2022/11/16 06:37:44;;;;;;;15.65;5.30;;;;;;;7.55;100.00;99585.81;5010390;28;20129;-60
2022/11/16 06:40:10;;;;;;;14.18;5.20;;;;;;;7.64;100.00;99609.03;5010147;28;20066;-60
2022/11/16 06:42:36;;;;;;;13.57;5.10;;;;;;;7.73;100.00;99640.97;5009046;28;20034;-59
2022/11/16 06:45:01;;;;;;;13.70;5.35;;;;;;;7.86;100.00;99684.06;5010119;28;20079;-60
2022/11/16 06:47:26;;;;;;;13.18;5.18;;;;;;;7.91;100.00;99678.63;5010182;28;20067;-61
2022/11/16 06:49:52;;;;;;;14.65;5.28;;;;;;;7.84;100.00;99674.56;5010148;28;20042;-61
2022/11/16 06:52:17;;;;;;;15.95;5.07;;;;;;;7.93;100.00;99676.84;5008723;28;20071;-59
2022/11/16 06:54:42;;;;;;;15.95;5.47;;;;;;;7.95;100.00;99685.47;5009981;28;20034;-59
2022/11/16 06:57:07;;;;;;;16.02;5.70;;;;;;;7.52;100.00;99615.59;5010178;28;20037;-60
2022/11/16 06:59:33;;;;;;;15.70;5.97;;;;;;;7.52;100.00;99618.22;5008705;28;20091;-60
2022/11/16 07:01:58;;;;;;;18.63;5.07;;;;;;;7.90;100.00;99683.06;5009974;28;20042;-60
2022/11/16 07:04:23;;;;;;;12.93;5.18;;;;;;;7.88;100.00;99690.09;5009678;28;20474;-60
2022/11/16 07:06:49;;;;;;;20.80;5.60;;;;;;;7.86;100.00;99696.31;5008693;28;20440;-60
2022/11/16 07:09:14;;;;;;;10.23;4.50;;;;;;;7.81;100.00;99677.31;5008473;28;20411;-60
2022/11/16 07:11:40;;;;;;;9.98;4.05;;;;;;;7.72;100.00;99665.44;5009293;28;20516;-60
2022/11/16 07:14:05;;;;;;;13.02;4.30;;;;;;;7.88;100.00;99689.28;5008676;28;20034;-60
2022/11/16 07:16:31;;;;;;;13.23;4.75;;;;;;;7.47;100.00;99619.31;5008898;28;20055;-60
2022/11/16 07:18:57;;;;;;;14.65;4.93;;;;;;;7.74;100.00;99694.16;5009935;28;20397;-59
2022/11/16 07:21:23;;;;;;;19.38;4.88;;;;;;;7.36;100.00;99627.56;5008869;28;20414;-60
2022/11/16 07:23:48;;;;;;;12.98;4.63;;;;;;;7.46;100.00;99651.63;5007716;28;20046;-60
2022/11/16 07:26:14;;;;;;;13.85;4.72;;;;;;;7.78;100.00;99704.50;5009304;28;20042;-61
2022/11/16 07:28:39;;;;;;;12.27;4.85;;;;;;;7.76;100.00;99700.22;5009800;28;20058;-59
2022/11/16 07:31:09;;;;;;;11.05;4.20;;;;;;;7.75;100.00;99702.00;5008121;28;20037;-59
2022/11/16 07:33:35;;;;;;;19.73;5.32;;;;;;;7.56;100.00;99653.00;5008242;28;20038;-60
2022/11/16 07:36:05;;;;;;;11.63;4.35;;;;;;;7.82;100.00;99700.00;5008461;28;20079;-59
2022/11/16 07:38:31;;;;;;;14.95;4.95;;;;;;;7.81;100.00;99703.50;5008272;28;20030;-60
2022/11/16 07:41:00;;;;;;;13.75;4.30;;;;;;;7.84;100.00;99717.34;5009045;28;20037;-59
2022/11/16 07:43:28;;;;;;;17.95;4.85;;;;;;;7.87;100.00;99709.38;5008013;28;20041;-61
2022/11/16 07:45:57;;;;;;;10.68;4.28;;;;;;;7.91;100.00;99713.56;5009282;28;20078;-60
2022/11/16 07:48:22;;;;;;;8.35;4.30;;;;;;;7.93;100.00;99710.91;5009313;28;20046;-60
2022/11/16 07:50:47;;;;;;;15.80;4.00;;;;;;;7.99;100.00;99713.28;5009326;28;20125;-60
2022/11/16 07:53:13;;;;;;;16.48;4.40;;;;;;;8.01;100.00;99719.28;5009391;28;20042;-60
2022/11/16 07:55:38;;;;;;;18.70;4.40;;;;;;;8.05;100.00;99731.38;5008251;28;20409;-60
2022/11/16 07:58:03;;;;;;;12.80;4.70;;;;;;;7.73;100.00;99663.69;5006906;28;20056;-59
2022/11/16 08:00:29;;;;;;;15.05;4.20;;;;;;;7.56;100.00;99650.38;5008219;28;20076;-60
2022/11/16 08:02:55;;;;;;;9.95;4.38;;;;;;;8.00;100.00;99714.13;5008397;28;20144;-60
2022/11/16 08:05:21;;;;;;;12.63;4.80;;;;;;;8.12;100.00;99727.59;5008127;28;20049;-60
2022/11/16 08:07:46;;;;;;;16.35;4.70;;;;;;;7.76;100.00;99672.25;5007625;28;20037;-60
2022/11/16 08:10:11;;;;;;;13.45;4.28;;;;;;;8.05;100.00;99706.94;5007172;28;20077;-61
2022/11/16 08:12:37;;;;;;;15.40;4.70;;;;;;;8.20;100.00;99730.75;5007326;28;20042;-61
2022/11/16 08:15:03;;;;;;;14.43;4.57;;;;;;;8.21;100.00;99721.97;5007153;28;20048;-61
2022/11/16 08:17:28;;;;;;;15.50;5.15;;;;;;;7.99;100.00;99683.59;5002413;28;20039;-61
2022/11/16 08:19:53;;;;;;;20.23;4.80;;;;;;;8.25;100.00;99733.19;4996953;28;20050;-60
2022/11/16 08:22:19;;;;;;;13.32;3.97;;;;;;;7.84;100.00;99659.72;4987600;28;20058;-60
2022/11/16 08:24:44;;;;;;;11.80;4.43;;;;;;;7.82;100.00;99655.44;5001322;28;20079;-60
2022/11/16 08:27:09;;;;;;;18.33;4.93;;;;;;;8.15;100.00;99716.13;5004620;28;20034;-60
2022/11/16 08:29:35;;;;;;;12.57;4.88;;;;;;;8.20;100.00;99725.50;5005303;28;20074;-59
2022/11/16 08:32:00;;;;;;;15.85;5.32;;;;;;;8.33;100.00;99741.63;5005804;28;20042;-60
2022/11/16 08:34:25;;;;;;;11.65;5.50;;;;;;;8.43;100.00;99748.22;5006626;28;20081;-60
2022/11/16 08:36:51;;;;;;;18.88;5.53;;;;;;;8.55;100.00;99728.50;4991435;28;20038;-60
2022/11/16 08:39:17;;;;;;;13.90;5.85;;;;;;;8.48;100.00;99718.25;4987630;28;20048;-59
2022/11/16 08:41:43;;;;;;;16.73;5.88;;;;;;;8.46;100.00;99711.38;4987546;28;20054;-59
2022/11/16 08:44:08;;;;;;;12.93;5.45;;;;;;;8.60;100.00;99735.25;4987454;28;20038;-59
2022/11/16 08:46:34;;;;;;;12.75;5.10;;;;;;;8.18;100.00;99655.72;4991909;28;20046;-59
2022/11/16 08:48:59;;;;;;;23.77;6.00;;;;;;;8.53;100.00;99719.81;5007111;28;20461;-60
2022/11/16 08:51:25;;;;;;;15.80;4.75;;;;;;;8.65;100.00;99743.78;5007028;28;20090;-60
2022/11/16 08:53:58;;;;;;;12.75;4.65;;;;;;;8.61;100.00;99721.22;5006687;28;20117;-60
2022/11/16 08:56:25;;;;;;;15.30;4.60;;;;;;;8.54;100.00;99713.69;5000225;28;20410;-62
2022/11/16 08:58:52;;;;;;;8.27;4.35;;;;;;;8.27;100.00;99674.56;4986179;28;20441;-60
2022/11/16 09:01:20;;;;;;;15.23;4.85;;;;;;;8.62;100.00;99735.19;4985441;28;20035;-60
2022/11/16 09:03:45;;;;;;;14.63;5.63;;;;;;;8.34;100.00;99686.53;4987448;28;20034;-60
2022/11/16 09:06:11;;;;;;;14.85;5.95;;;;;;;8.68;100.00;99730.53;4986622;28;20064;-60
2022/11/16 09:08:38;;;;;;;9.75;5.07;;;;;;;8.31;100.00;99670.91;4986492;28;20038;-60
2022/11/16 09:11:06;;;;;;;10.60;4.15;;;;;;;8.68;100.00;99740.16;5001677;28;20038;-61
2022/11/16 09:13:31;;;;;;;14.05;4.88;;;;;;;8.75;100.00;99736.38;5001901;28;20023;-60
2022/11/16 09:15:57;;;;;;;14.68;5.13;;;;;;;8.64;100.00;99725.50;4987608;28;20047;-60
2022/11/16 09:18:23;;;;;;;12.23;4.68;;;;;;;8.69;100.00;99729.63;4985706;28;20507;-60
2022/11/16 09:20:49;;;;;;;15.30;5.15;;;;;;;8.84;100.00;99736.00;4986719;28;20164;-60
2022/11/16 09:23:14;;;;;;;14.52;4.72;;;;;;;8.55;100.00;99674.28;4987148;28;20094;-60
2022/11/16 09:25:39;;;;;;;12.60;4.50;;;;;;;8.64;100.00;99676.50;4987217;28;20053;-58
2022/11/16 09:28:05;;;;;;;14.20;5.00;;;;;;;9.12;100.00;99744.38;4987107;28;20373;-59
2022/11/16 09:30:30;;;;;;;10.88;4.68;;;;;;;8.98;100.00;99712.63;4986767;28;20127;-59
2022/11/16 09:32:57;;;;;;;12.98;4.63;;;;;;;9.10;100.00;99729.63;4987235;28;20066;-58
2022/11/16 09:35:23;;;;;;;10.50;4.68;;;;;;;8.87;100.00;99681.59;4987271;28;20042;-62
2022/11/16 09:37:48;;;;;;;8.80;4.18;;;;;;;8.96;100.00;99667.25;5003283;28;20034;-61
2022/11/16 09:40:13;;;;;;;14.57;5.65;;;;;;;9.24;100.00;99696.59;5006299;28;20054;-60
2022/11/16 09:43:00;;;;;;;12.00;4.60;;;;;;;9.69;100.00;99747.97;5006123;28;20034;-60
2022/11/16 09:45:34;;;;;;;9.20;5.18;;;;;;;9.64;100.00;99695.59;5008446;28;20120;-61
2022/11/16 09:48:01;;;;;;;9.30;5.85;;;;;;;10.00;100.00;99756.13;5009740;28;20041;-60
2022/11/16 09:50:49;;;;;;;16.20;6.28;;;;;;;10.18;100.00;99755.28;5024693;28;20038;-60
2022/11/16 09:53:19;;;;;;;16.55;6.68;;;;;;;10.34;100.00;99747.47;5008413;28;20030;-61
2022/11/16 09:55:56;;;;;;;14.05;6.13;;;;;;;10.27;100.00;99735.56;5009882;28;20422;-60
2022/11/16 09:58:38;;;;;;;11.68;6.05;;;;;;;10.00;100.00;99687.75;4989629;28;20034;-61
2022/11/16 10:01:12;;;;;;;16.02;6.43;;;;;;;9.76;100.00;99645.09;4989126;28;20067;-61
2022/11/16 10:03:41;;;;;;;12.15;6.05;;;;;;;10.31;100.00;99766.03;4988873;28;20049;-61
2022/11/16 10:06:15;;;;;;;13.55;6.00;;;;;;;9.85;100.00;99696.38;4972494;28;20042;-62
2022/11/16 10:08:45;;;;;;;10.32;5.60;;;;;;;10.12;100.00;99766.91;4988298;28;20022;-61
2022/11/16 10:11:29;;;;;;;16.33;6.10;;;;;;;10.04;100.00;99757.69;4972001;28;20049;-60
2022/11/16 10:14:32;;;;;;;12.38;6.57;;;;;;;10.11;100.00;99749.41;4989619;28;20034;-61
2022/11/16 10:17:30;;;;;;;14.25;6.57;;;;;;;10.19;100.00;99750.88;4989630;28;20034;-61
2022/11/16 10:20:04;;;;;;;14.50;6.25;;;;;;;10.22;100.00;99750.69;4965801;28;20038;-61
2022/11/16 10:22:39;;;;;;;11.50;5.85;;;;;;;10.26;100.00;99754.91;4988343;28;20449;-61
2022/11/16 10:25:15;;;;;;;13.02;5.93;;;;;;;10.32;100.00;99742.31;4989704;28;20394;-60
2022/11/16 10:27:44;;;;;;;7.88;4.97;;;;;;;10.11;100.00;99696.84;5005971;28;20121;-60
2022/11/16 10:30:17;;;;;;;16.33;5.55;;;;;;;10.32;100.00;99741.47;5007925;28;20038;-61
2022/11/16 10:32:59;;;;;;;15.32;5.28;;;;;;;9.97;100.00;99695.78;5009507;28;20059;-61
2022/11/16 10:35:29;;;;;;;8.48;4.95;;;;;;;10.33;100.00;99751.91;5008030;28;20102;-61
2022/11/16 10:37:58;;;;;;;13.98;4.70;;;;;;;10.33;100.00;99757.19;5008204;28;20418;-61
2022/11/16 10:40:28;;;;;;;9.48;4.82;;;;;;;10.33;100.00;99756.31;5007856;28;20030;-61
2022/11/16 10:43:02;;;;;;;14.80;4.87;;;;;;;10.01;100.00;99692.09;5008111;28;20451;-61
2022/11/16 10:45:34;;;;;;;11.23;5.05;;;;;;;10.18;100.00;99693.94;5009207;28;20087;-61
2022/11/16 10:48:21;;;;;;;8.95;3.90;;;;;;;10.59;100.00;99774.31;5007690;28;20038;-61
2022/11/16 10:50:47;;;;;;;11.32;4.45;;;;;;;10.15;100.00;99666.03;5008978;28;20040;-61
2022/11/16 10:53:14;;;;;;;14.25;4.22;;;;;;;10.67;100.00;99746.69;5009088;28;20505;-62
2022/11/16 10:55:40;;;;;;;11.32;4.45;;;;;;;10.63;100.00;99754.81;5008301;28;20478;-62
2022/11/16 10:58:06;;;;;;;12.90;4.38;;;;;;;10.66;100.00;99747.63;5000067;28;20037;-62
2022/11/16 11:00:46;;;;;;;15.40;4.10;;;;;;;10.63;100.00;99757.44;4989160;28;20039;-62
2022/11/16 11:03:12;;;;;;;14.13;4.50;;;;;;;10.53;100.00;99737.78;4990716;28;20038;-62
2022/11/16 11:05:47;;;;;;;8.93;3.40;;;;;;;9.99;100.00;99659.75;5008801;28;20284;-62
2022/11/16 11:08:24;;;;;;;14.13;4.65;;;;;;;10.18;100.00;99694.78;5008030;28;20025;-62
2022/11/16 11:11:00;;;;;;;12.07;4.25;;;;;;;10.52;100.00;99754.47;5007501;28;20058;-61
2022/11/16 11:13:25;;;;;;;9.75;4.05;;;;;;;10.57;100.00;99742.81;5007600;28;20041;-62
2022/11/16 11:15:52;;;;;;;14.35;4.07;;;;;;;10.66;100.00;99747.63;5006643;28;20034;-62
2022/11/16 11:18:23;;;;;;;10.25;4.60;;;;;;;10.73;100.00;99764.81;5007267;28;20038;-62
2022/11/16 11:20:49;;;;;;;;;;;;;;;10.85;100.00;99758.09;5007439;28;20091;-63
2022/11/16 11:23:19;;;;;;;8.65;3.90;;;;;;;10.94;100.00;99760.25;5006546;28;19921;-62
2022/11/16 11:25:56;;;;;;;8.45;4.10;;;;;;;10.73;100.00;99703.41;5006978;28;20049;-62
2022/11/16 11:28:30;;;;;;;10.43;4.20;;;;;;;11.11;100.00;99776.03;5008022;28;20516;-63
2022/11/16 11:31:03;;;;;;;10.35;4.30;;;;;;;11.10;100.00;99750.63;5008128;28;20366;-62
2022/11/16 11:33:32;;;;;;;14.82;4.97;;;;;;;11.17;100.00;99754.66;5008382;28;20145;-62
2022/11/16 11:36:02;;;;;;;13.18;4.95;;;;;;;11.32;100.00;99769.63;5007141;28;20038;-61
2022/11/16 11:38:27;;;;;;;10.00;5.05;;;;;;;11.27;100.00;99763.75;5008214;28;20036;-62
2022/11/16 11:41:00;;;;;;;8.02;5.03;;;;;;;11.37;100.00;99782.59;5008232;28;20124;-62
2022/11/16 11:43:27;;;;;;;9.02;4.97;;;;;;;11.01;100.00;99713.38;5008049;28;20041;-61
2022/11/16 11:46:05;;;;;;;8.63;5.05;;;;;;;10.94;100.00;99696.22;5007104;28;20130;-60
2022/11/16 11:48:52;;;;;;;11.63;5.30;;;;;;;11.39;100.00;99742.97;5007280;28;20064;-61
2022/11/16 11:51:28;;;;;;;15.25;5.85;;;;;;;11.16;100.00;99691.50;5007717;28;20033;-60
2022/11/16 11:53:58;;;;;;;7.65;4.93;;;;;;;11.34;100.00;99711.59;5006661;28;20033;-61
2022/11/16 11:56:25;;;;;;;9.20;3.83;;;;;;;11.24;100.00;99695.44;5007974;28;20026;-61
2022/11/16 11:58:50;;;;;;;7.70;3.88;;;;;;;11.41;100.00;99735.84;5008478;28;20044;-60
2022/11/16 12:01:54;;;;;;;11.60;3.55;;;;;;;11.20;100.00;99732.56;5006802;28;20038;-61
2022/11/16 12:04:49;;;;;;;8.43;4.10;;;;;;;11.06;100.00;99737.72;5008070;28;20474;-61
2022/11/16 12:07:23;;;;;;;9.85;4.25;;;;;;;10.98;100.00;99737.22;5007212;28;20056;-61